ダッカ の空港の天気 - METARとTAF

シャージャラル国際空港(ダッカ) ( VGHS / DAC ) - バングラデシュ ダッカ
飛行場実況気象(Metar)
観測時間11/18 00:00 BDT (11/17 18:00 UTC)
風向・風速静穏 0m/s
視程3500m
天気現象煙霧
なし
気温22℃
湿度73%
気圧1013hPa
METARVGHS 171800Z 00000KT 3500 HZ NSC 22/17 Q1013 NOSIG
過去の天気等 Google飛行場航空写真 Wunderground天気予報

過去48時間のMETAR

飛行場予報(TAF)
発表時間: 11/17 23:00 BDT (11/17 17:00 UTC)
予報対象時間: 18日0時 BDT ~ 19日6時 BDT
風向・風速北西 2m/s
視程3200m
天気現象煙霧
なし
18日2時 BDT ~ 18日4時 BDT に徐々に
風向・風速不定 2m/s
視程2500m
天気現象もや
18日4時 BDT ~ 18日6時 BDT に徐々に
風向・風速静穏
視程1500m
天気現象もや
全天の4割程度の雲 雲底高度 370m
18日10時 BDT ~ 18日12時 BDT に徐々に
風向・風速北 3m/s
視程3000m
天気現象煙霧
なし
18日12時 BDT ~ 18日14時 BDT に徐々に
風向・風速北北東 4m/s
視程3500m
天気現象煙霧
19日2時 BDT ~ 19日4時 BDT に徐々に
風向・風速不定 2m/s
視程2500m
天気現象もや
TAF VGHS 171700Z 1718/1824 31004KT 3200 HZ NSC
BECMG 1720/1722 VRB03KT 2500 BR
BECMG 1722/1724 00000KT 1500 BR SCT012
BECMG 1804/1806 01005KT 3000 HZ NSC
BECMG 1806/1808 02008KT 3500 HZ
BECMG 1820/1822 VRB03KT 2500 BR